sensor_id;sensor_type;location;lat;lon;timestamp;P1;durP1;ratioP1;P2;durP2;ratioP2
83288;SDS011;73193;50.866;5.420;2023-11-19T00:01:15;1.85;;;1.10;;
83288;SDS011;73193;50.866;5.420;2023-11-19T00:02:46;1.23;;;0.93;;
83288;SDS011;73193;50.866;5.420;2023-11-19T00:05:48;1.27;;;0.80;;
83288;SDS011;73193;50.866;5.420;2023-11-19T00:07:18;1.42;;;1.02;;
83288;SDS011;73193;50.866;5.420;2023-11-19T00:08:50;2.17;;;0.90;;
83288;SDS011;73193;50.866;5.420;2023-11-19T00:10:21;1.95;;;0.93;;
83288;SDS011;73193;50.866;5.420;2023-11-19T00:11:51;1.08;;;0.88;;
83288;SDS011;73193;50.866;5.420;2023-11-19T00:13:22;1.98;;;0.90;;
83288;SDS011;73193;50.866;5.420;2023-11-19T00:14:53;1.08;;;0.70;;
83288;SDS011;73193;50.866;5.420;2023-11-19T00:16:24;1.75;;;1.17;;
83288;SDS011;73193;50.866;5.420;2023-11-19T00:17:54;1.10;;;1.00;;
83288;SDS011;73193;50.866;5.420;2023-11-19T00:19:25;2.08;;;1.20;;
83288;SDS011;73193;50.866;5.420;2023-11-19T00:20:56;1.08;;;0.80;;
83288;SDS011;73193;50.866;5.420;2023-11-19T00:22:27;1.55;;;1.00;;
83288;SDS011;73193;50.866;5.420;2023-11-19T00:23:57;1.23;;;1.13;;
83288;SDS011;73193;50.866;5.420;2023-11-19T00:25:28;1.75;;;0.98;;
83288;SDS011;73193;50.866;5.420;2023-11-19T00:26:59;1.98;;;1.20;;
83288;SDS011;73193;50.866;5.420;2023-11-19T00:28:29;1.52;;;1.42;;
83288;SDS011;73193;50.866;5.420;2023-11-19T00:30:00;1.63;;;1.20;;
83288;SDS011;73193;50.866;5.420;2023-11-19T00:31:31;3.92;;;1.45;;
83288;SDS011;73193;50.866;5.420;2023-11-19T00:33:01;1.85;;;1.35;;
83288;SDS011;73193;50.866;5.420;2023-11-19T00:34:32;3.83;;;1.38;;
83288;SDS011;73193;50.866;5.420;2023-11-19T00:36:03;2.53;;;1.60;;
83288;SDS011;73193;50.866;5.420;2023-11-19T00:37:34;2.22;;;1.55;;
83288;SDS011;73193;50.866;5.420;2023-11-19T00:39:04;3.08;;;1.58;;
83288;SDS011;73193;50.866;5.420;2023-11-19T00:40:36;2.65;;;1.77;;
83288;SDS011;73193;50.866;5.420;2023-11-19T00:42:07;2.80;;;1.58;;
83288;SDS011;73193;50.866;5.420;2023-11-19T00:43:37;2.65;;;1.50;;
83288;SDS011;73193;50.866;5.420;2023-11-19T00:45:08;4.63;;;1.75;;
83288;SDS011;73193;50.866;5.420;2023-11-19T00:46:40;1.75;;;1.40;;
83288;SDS011;73193;50.866;5.420;2023-11-19T00:48:10;3.13;;;1.65;;
83288;SDS011;73193;50.866;5.420;2023-11-19T00:49:41;3.95;;;2.30;;
83288;SDS011;73193;50.866;5.420;2023-11-19T00:51:12;2.92;;;1.90;;
83288;SDS011;73193;50.866;5.420;2023-11-19T00:54:14;3.30;;;1.73;;
83288;SDS011;73193;50.866;5.420;2023-11-19T00:55:45;3.25;;;1.73;;
83288;SDS011;73193;50.866;5.420;2023-11-19T00:57:16;2.80;;;1.70;;
83288;SDS011;73193;50.866;5.420;2023-11-19T00:58:46;3.92;;;1.90;;
83288;SDS011;73193;50.866;5.420;2023-11-19T01:00:17;3.78;;;2.03;;
83288;SDS011;73193;50.866;5.420;2023-11-19T01:01:48;3.33;;;2.13;;
83288;SDS011;73193;50.866;5.420;2023-11-19T01:03:19;3.53;;;2.00;;
83288;SDS011;73193;50.866;5.420;2023-11-19T01:04:49;2.45;;;2.00;;
83288;SDS011;73193;50.866;5.420;2023-11-19T01:06:27;4.03;;;2.42;;
83288;SDS011;73193;50.866;5.420;2023-11-19T01:08:01;5.20;;;2.13;;
83288;SDS011;73193;50.866;5.420;2023-11-19T01:09:34;3.67;;;1.83;;
83288;SDS011;73193;50.866;5.420;2023-11-19T01:11:05;3.80;;;2.08;;
83288;SDS011;73193;50.866;5.420;2023-11-19T01:12:36;7.20;;;2.00;;
83288;SDS011;73193;50.866;5.420;2023-11-19T01:14:07;4.43;;;1.90;;
83288;SDS011;73193;50.866;5.420;2023-11-19T01:15:38;3.67;;;1.70;;
83288;SDS011;73193;50.866;5.420;2023-11-19T01:17:11;4.25;;;2.03;;
83288;SDS011;73193;50.866;5.420;2023-11-19T01:18:41;3.20;;;1.77;;
83288;SDS011;73193;50.866;5.420;2023-11-19T01:20:12;4.18;;;2.22;;
83288;SDS011;73193;50.866;5.420;2023-11-19T01:21:43;5.20;;;2.30;;
83288;SDS011;73193;50.866;5.420;2023-11-19T01:23:14;4.38;;;1.73;;
83288;SDS011;73193;50.866;5.420;2023-11-19T01:24:44;5.55;;;1.98;;
83288;SDS011;73193;50.866;5.420;2023-11-19T01:26:15;6.95;;;2.35;;
83288;SDS011;73193;50.866;5.420;2023-11-19T01:29:17;5.57;;;1.92;;
83288;SDS011;73193;50.866;5.420;2023-11-19T01:30:50;5.18;;;2.00;;
83288;SDS011;73193;50.866;5.420;2023-11-19T01:32:21;2.72;;;1.90;;
83288;SDS011;73193;50.866;5.420;2023-11-19T01:33:54;4.78;;;2.25;;
83288;SDS011;73193;50.866;5.420;2023-11-19T01:35:24;6.13;;;2.22;;
83288;SDS011;73193;50.866;5.420;2023-11-19T01:36:55;4.30;;;2.20;;
83288;SDS011;73193;50.866;5.420;2023-11-19T01:38:25;4.70;;;1.95;;
83288;SDS011;73193;50.866;5.420;2023-11-19T01:39:57;5.45;;;2.13;;
83288;SDS011;73193;50.866;5.420;2023-11-19T01:41:28;5.38;;;2.28;;
83288;SDS011;73193;50.866;5.420;2023-11-19T01:42:58;5.55;;;2.00;;
83288;SDS011;73193;50.866;5.420;2023-11-19T01:44:30;6.25;;;2.10;;
83288;SDS011;73193;50.866;5.420;2023-11-19T01:46:02;9.30;;;2.42;;
83288;SDS011;73193;50.866;5.420;2023-11-19T01:47:34;6.45;;;2.00;;
83288;SDS011;73193;50.866;5.420;2023-11-19T01:49:05;3.95;;;1.65;;
83288;SDS011;73193;50.866;5.420;2023-11-19T01:50:37;9.65;;;1.95;;
83288;SDS011;73193;50.866;5.420;2023-11-19T01:52:07;7.45;;;2.45;;
83288;SDS011;73193;50.866;5.420;2023-11-19T01:53:38;8.80;;;2.15;;
83288;SDS011;73193;50.866;5.420;2023-11-19T01:55:10;5.47;;;1.90;;
83288;SDS011;73193;50.866;5.420;2023-11-19T01:58:12;5.60;;;1.67;;
83288;SDS011;73193;50.866;5.420;2023-11-19T01:59:43;5.35;;;2.40;;
83288;SDS011;73193;50.866;5.420;2023-11-19T02:01:14;9.23;;;2.13;;
83288;SDS011;73193;50.866;5.420;2023-11-19T02:02:48;6.30;;;1.80;;
83288;SDS011;73193;50.866;5.420;2023-11-19T02:04:19;5.47;;;1.95;;
83288;SDS011;73193;50.866;5.420;2023-11-19T02:05:50;8.40;;;2.13;;
83288;SDS011;73193;50.866;5.420;2023-11-19T02:07:23;8.20;;;2.45;;
83288;SDS011;73193;50.866;5.420;2023-11-19T02:08:55;8.80;;;1.90;;
83288;SDS011;73193;50.866;5.420;2023-11-19T02:10:26;5.72;;;2.40;;
83288;SDS011;73193;50.866;5.420;2023-11-19T02:11:57;4.68;;;1.50;;
83288;SDS011;73193;50.866;5.420;2023-11-19T02:13:27;8.00;;;2.10;;
83288;SDS011;73193;50.866;5.420;2023-11-19T02:14:58;11.23;;;2.30;;
83288;SDS011;73193;50.866;5.420;2023-11-19T02:16:29;7.25;;;2.40;;
83288;SDS011;73193;50.866;5.420;2023-11-19T02:18:19;7.32;;;2.20;;
83288;SDS011;73193;50.866;5.420;2023-11-19T02:20:00;7.68;;;1.83;;
83288;SDS011;73193;50.866;5.420;2023-11-19T02:21:31;8.15;;;2.05;;
83288;SDS011;73193;50.866;5.420;2023-11-19T02:23:01;8.60;;;2.38;;
83288;SDS011;73193;50.866;5.420;2023-11-19T02:24:32;7.13;;;1.90;;
83288;SDS011;73193;50.866;5.420;2023-11-19T02:29:29;4.75;;;1.55;;
83288;SDS011;73193;50.866;5.420;2023-11-19T02:31:00;11.00;;;2.28;;
83288;SDS011;73193;50.866;5.420;2023-11-19T02:32:31;9.77;;;1.92;;
83288;SDS011;73193;50.866;5.420;2023-11-19T02:34:01;11.95;;;2.10;;
83288;SDS011;73193;50.866;5.420;2023-11-19T02:35:32;6.68;;;1.80;;
83288;SDS011;73193;50.866;5.420;2023-11-19T02:38:36;10.40;;;2.17;;
83288;SDS011;73193;50.866;5.420;2023-11-19T02:40:06;7.07;;;2.08;;
83288;SDS011;73193;50.866;5.420;2023-11-19T02:41:39;6.85;;;1.80;;
83288;SDS011;73193;50.866;5.420;2023-11-19T02:43:09;11.57;;;2.22;;
83288;SDS011;73193;50.866;5.420;2023-11-19T02:44:43;7.13;;;1.90;;
83288;SDS011;73193;50.866;5.420;2023-11-19T02:46:15;9.57;;;1.95;;
83288;SDS011;73193;50.866;5.420;2023-11-19T02:47:47;9.25;;;2.42;;
83288;SDS011;73193;50.866;5.420;2023-11-19T02:49:18;10.30;;;1.90;;
83288;SDS011;73193;50.866;5.420;2023-11-19T02:50:48;10.73;;;2.78;;
83288;SDS011;73193;50.866;5.420;2023-11-19T02:52:19;5.97;;;1.85;;
83288;SDS011;73193;50.866;5.420;2023-11-19T02:53:50;7.65;;;2.47;;
83288;SDS011;73193;50.866;5.420;2023-11-19T02:55:20;6.40;;;2.08;;
83288;SDS011;73193;50.866;5.420;2023-11-19T02:56:51;6.00;;;1.98;;
83288;SDS011;73193;50.866;5.420;2023-11-19T02:58:25;6.95;;;1.92;;
83288;SDS011;73193;50.866;5.420;2023-11-19T02:59:58;8.10;;;1.95;;
83288;SDS011;73193;50.866;5.420;2023-11-19T03:01:28;5.93;;;1.80;;
83288;SDS011;73193;50.866;5.420;2023-11-19T03:02:59;12.57;;;2.67;;
83288;SDS011;73193;50.866;5.420;2023-11-19T03:04:35;6.00;;;2.13;;
83288;SDS011;73193;50.866;5.420;2023-11-19T03:06:06;12.10;;;2.75;;
83288;SDS011;73193;50.866;5.420;2023-11-19T03:07:39;8.75;;;2.03;;
83288;SDS011;73193;50.866;5.420;2023-11-19T03:09:09;12.27;;;2.65;;
83288;SDS011;73193;50.866;5.420;2023-11-19T03:10:40;8.82;;;2.50;;
83288;SDS011;73193;50.866;5.420;2023-11-19T03:12:11;10.63;;;2.25;;
83288;SDS011;73193;50.866;5.420;2023-11-19T03:13:42;9.65;;;2.30;;
83288;SDS011;73193;50.866;5.420;2023-11-19T03:15:12;10.30;;;2.53;;
83288;SDS011;73193;50.866;5.420;2023-11-19T03:16:46;9.27;;;2.17;;
83288;SDS011;73193;50.866;5.420;2023-11-19T03:18:16;12.45;;;2.05;;
83288;SDS011;73193;50.866;5.420;2023-11-19T03:19:47;9.93;;;2.58;;
83288;SDS011;73193;50.866;5.420;2023-11-19T03:21:18;8.45;;;1.98;;
83288;SDS011;73193;50.866;5.420;2023-11-19T03:22:49;10.38;;;1.98;;
83288;SDS011;73193;50.866;5.420;2023-11-19T03:24:21;9.27;;;1.98;;
83288;SDS011;73193;50.866;5.420;2023-11-19T03:25:52;7.15;;;1.95;;
83288;SDS011;73193;50.866;5.420;2023-11-19T03:27:23;8.23;;;1.92;;
83288;SDS011;73193;50.866;5.420;2023-11-19T03:28:53;12.73;;;2.78;;
83288;SDS011;73193;50.866;5.420;2023-11-19T03:30:24;10.05;;;2.05;;
83288;SDS011;73193;50.866;5.420;2023-11-19T03:31:55;8.93;;;2.00;;
83288;SDS011;73193;50.866;5.420;2023-11-19T03:33:25;10.77;;;2.65;;
83288;SDS011;73193;50.866;5.420;2023-11-19T03:34:57;9.80;;;1.88;;
83288;SDS011;73193;50.866;5.420;2023-11-19T03:36:32;11.10;;;2.70;;
83288;SDS011;73193;50.866;5.420;2023-11-19T03:38:03;7.50;;;1.73;;
83288;SDS011;73193;50.866;5.420;2023-11-19T03:39:34;11.32;;;1.95;;
83288;SDS011;73193;50.866;5.420;2023-11-19T03:41:13;6.90;;;1.63;;
83288;SDS011;73193;50.866;5.420;2023-11-19T03:42:45;7.07;;;1.83;;
83288;SDS011;73193;50.866;5.420;2023-11-19T03:44:16;10.50;;;2.20;;
83288;SDS011;73193;50.866;5.420;2023-11-19T03:47:18;6.13;;;1.67;;
83288;SDS011;73193;50.866;5.420;2023-11-19T03:48:49;7.57;;;2.20;;
83288;SDS011;73193;50.866;5.420;2023-11-19T03:50:20;13.68;;;2.00;;
83288;SDS011;73193;50.866;5.420;2023-11-19T03:51:51;9.05;;;1.80;;
83288;SDS011;73193;50.866;5.420;2023-11-19T03:53:21;6.90;;;1.73;;
83288;SDS011;73193;50.866;5.420;2023-11-19T03:54:54;7.38;;;2.65;;
83288;SDS011;73193;50.866;5.420;2023-11-19T03:56:25;8.27;;;2.65;;
83288;SDS011;73193;50.866;5.420;2023-11-19T03:57:57;9.73;;;2.05;;
83288;SDS011;73193;50.866;5.420;2023-11-19T03:59:27;8.70;;;2.45;;
83288;SDS011;73193;50.866;5.420;2023-11-19T04:00:58;8.18;;;2.42;;
83288;SDS011;73193;50.866;5.420;2023-11-19T04:02:29;8.73;;;2.35;;
83288;SDS011;73193;50.866;5.420;2023-11-19T04:03:59;6.13;;;1.95;;
83288;SDS011;73193;50.866;5.420;2023-11-19T04:05:30;9.32;;;2.35;;
83288;SDS011;73193;50.866;5.420;2023-11-19T04:07:01;9.88;;;2.30;;
83288;SDS011;73193;50.866;5.420;2023-11-19T04:08:33;7.65;;;1.98;;
83288;SDS011;73193;50.866;5.420;2023-11-19T04:10:05;14.18;;;2.47;;
83288;SDS011;73193;50.866;5.420;2023-11-19T04:11:36;9.07;;;2.30;;
83288;SDS011;73193;50.866;5.420;2023-11-19T04:13:07;9.75;;;2.30;;
83288;SDS011;73193;50.866;5.420;2023-11-19T04:14:38;7.60;;;1.55;;
83288;SDS011;73193;50.866;5.420;2023-11-19T04:16:08;9.65;;;2.30;;
83288;SDS011;73193;50.866;5.420;2023-11-19T04:17:39;9.02;;;1.90;;
83288;SDS011;73193;50.866;5.420;2023-11-19T04:19:10;8.85;;;2.15;;
83288;SDS011;73193;50.866;5.420;2023-11-19T04:20:41;12.75;;;2.47;;
83288;SDS011;73193;50.866;5.420;2023-11-19T04:23:43;12.13;;;2.15;;
83288;SDS011;73193;50.866;5.420;2023-11-19T04:25:14;7.88;;;1.80;;
83288;SDS011;73193;50.866;5.420;2023-11-19T04:26:45;8.85;;;2.08;;
83288;SDS011;73193;50.866;5.420;2023-11-19T04:29:47;8.73;;;1.70;;
83288;SDS011;73193;50.866;5.420;2023-11-19T04:31:19;11.32;;;2.10;;
83288;SDS011;73193;50.866;5.420;2023-11-19T04:32:49;10.65;;;2.22;;
83288;SDS011;73193;50.866;5.420;2023-11-19T04:34:20;8.23;;;1.52;;
83288;SDS011;73193;50.866;5.420;2023-11-19T04:35:50;9.70;;;2.22;;
83288;SDS011;73193;50.866;5.420;2023-11-19T04:37:21;9.05;;;2.30;;
83288;SDS011;73193;50.866;5.420;2023-11-19T04:38:52;10.73;;;2.60;;
83288;SDS011;73193;50.866;5.420;2023-11-19T04:40:23;10.02;;;1.88;;
83288;SDS011;73193;50.866;5.420;2023-11-19T04:41:53;8.15;;;2.30;;
83288;SDS011;73193;50.866;5.420;2023-11-19T04:43:24;9.95;;;1.90;;
83288;SDS011;73193;50.866;5.420;2023-11-19T04:44:55;9.18;;;2.08;;
83288;SDS011;73193;50.866;5.420;2023-11-19T04:46:26;9.98;;;2.22;;
83288;SDS011;73193;50.866;5.420;2023-11-19T04:47:56;9.73;;;2.05;;
83288;SDS011;73193;50.866;5.420;2023-11-19T04:49:27;11.13;;;2.10;;
83288;SDS011;73193;50.866;5.420;2023-11-19T04:50:57;9.32;;;1.70;;
83288;SDS011;73193;50.866;5.420;2023-11-19T04:52:28;9.50;;;1.50;;
83288;SDS011;73193;50.866;5.420;2023-11-19T04:53:59;10.10;;;2.22;;
83288;SDS011;73193;50.866;5.420;2023-11-19T04:55:29;7.50;;;2.30;;
83288;SDS011;73193;50.866;5.420;2023-11-19T04:57:00;12.13;;;2.13;;
83288;SDS011;73193;50.866;5.420;2023-11-19T04:58:31;12.27;;;2.40;;
83288;SDS011;73193;50.866;5.420;2023-11-19T05:00:01;10.55;;;2.03;;
83288;SDS011;73193;50.866;5.420;2023-11-19T05:01:35;13.32;;;2.50;;
83288;SDS011;73193;50.866;5.420;2023-11-19T05:03:05;9.50;;;1.80;;
83288;SDS011;73193;50.866;5.420;2023-11-19T05:04:36;10.98;;;2.40;;
83288;SDS011;73193;50.866;5.420;2023-11-19T05:06:10;9.13;;;1.83;;
83288;SDS011;73193;50.866;5.420;2023-11-19T05:07:40;8.63;;;2.20;;
83288;SDS011;73193;50.866;5.420;2023-11-19T05:09:11;10.75;;;2.33;;
83288;SDS011;73193;50.866;5.420;2023-11-19T05:10:43;10.15;;;1.80;;
83288;SDS011;73193;50.866;5.420;2023-11-19T05:12:14;12.32;;;2.40;;
83288;SDS011;73193;50.866;5.420;2023-11-19T05:13:44;13.18;;;2.70;;
83288;SDS011;73193;50.866;5.420;2023-11-19T05:15:15;8.50;;;2.03;;
83288;SDS011;73193;50.866;5.420;2023-11-19T05:16:46;9.27;;;2.17;;
83288;SDS011;73193;50.866;5.420;2023-11-19T05:18:16;8.60;;;1.98;;
83288;SDS011;73193;50.866;5.420;2023-11-19T05:19:48;12.90;;;2.30;;
83288;SDS011;73193;50.866;5.420;2023-11-19T05:21:19;12.98;;;2.00;;
83288;SDS011;73193;50.866;5.420;2023-11-19T05:22:49;11.60;;;2.10;;
83288;SDS011;73193;50.866;5.420;2023-11-19T05:24:22;13.55;;;2.45;;
83288;SDS011;73193;50.866;5.420;2023-11-19T05:25:52;9.73;;;2.70;;
83288;SDS011;73193;50.866;5.420;2023-11-19T05:27:23;9.98;;;2.50;;
83288;SDS011;73193;50.866;5.420;2023-11-19T05:28:54;10.25;;;2.15;;
83288;SDS011;73193;50.866;5.420;2023-11-19T05:30:25;13.30;;;2.88;;
83288;SDS011;73193;50.866;5.420;2023-11-19T05:31:55;13.63;;;2.58;;
83288;SDS011;73193;50.866;5.420;2023-11-19T05:33:26;11.82;;;2.78;;
83288;SDS011;73193;50.866;5.420;2023-11-19T05:34:57;17.00;;;2.80;;
83288;SDS011;73193;50.866;5.420;2023-11-19T05:36:27;11.55;;;2.30;;
83288;SDS011;73193;50.866;5.420;2023-11-19T05:37:59;11.25;;;2.50;;
83288;SDS011;73193;50.866;5.420;2023-11-19T05:39:29;14.52;;;2.92;;
83288;SDS011;73193;50.866;5.420;2023-11-19T05:41:00;13.65;;;2.70;;
83288;SDS011;73193;50.866;5.420;2023-11-19T05:42:30;11.02;;;2.40;;
83288;SDS011;73193;50.866;5.420;2023-11-19T05:44:01;13.35;;;2.50;;
83288;SDS011;73193;50.866;5.420;2023-11-19T05:45:32;9.27;;;2.15;;
83288;SDS011;73193;50.866;5.420;2023-11-19T05:47:03;7.82;;;1.98;;
83288;SDS011;73193;50.866;5.420;2023-11-19T05:48:34;9.95;;;2.83;;
83288;SDS011;73193;50.866;5.420;2023-11-19T05:50:04;14.05;;;3.38;;
83288;SDS011;73193;50.866;5.420;2023-11-19T05:51:37;10.18;;;2.08;;
83288;SDS011;73193;50.866;5.420;2023-11-19T05:53:08;10.55;;;2.05;;
83288;SDS011;73193;50.866;5.420;2023-11-19T05:54:40;12.73;;;2.50;;
83288;SDS011;73193;50.866;5.420;2023-11-19T05:56:11;13.30;;;2.92;;
83288;SDS011;73193;50.866;5.420;2023-11-19T05:57:42;11.95;;;2.47;;
83288;SDS011;73193;50.866;5.420;2023-11-19T05:59:13;10.25;;;2.28;;
83288;SDS011;73193;50.866;5.420;2023-11-19T06:00:47;12.25;;;2.25;;
83288;SDS011;73193;50.866;5.420;2023-11-19T06:02:18;10.40;;;2.25;;
83288;SDS011;73193;50.866;5.420;2023-11-19T06:03:49;11.85;;;2.25;;
83288;SDS011;73193;50.866;5.420;2023-11-19T06:05:20;11.65;;;2.30;;
83288;SDS011;73193;50.866;5.420;2023-11-19T06:06:50;16.45;;;2.88;;
83288;SDS011;73193;50.866;5.420;2023-11-19T06:08:21;13.45;;;2.35;;
83288;SDS011;73193;50.866;5.420;2023-11-19T06:09:52;11.18;;;2.40;;
83288;SDS011;73193;50.866;5.420;2023-11-19T06:11:22;10.27;;;1.70;;
83288;SDS011;73193;50.866;5.420;2023-11-19T06:12:53;12.50;;;2.47;;
83288;SDS011;73193;50.866;5.420;2023-11-19T06:14:26;14.18;;;2.75;;
83288;SDS011;73193;50.866;5.420;2023-11-19T06:15:56;16.38;;;2.10;;
83288;SDS011;73193;50.866;5.420;2023-11-19T06:17:27;13.90;;;2.70;;
83288;SDS011;73193;50.866;5.420;2023-11-19T06:18:58;10.35;;;2.22;;
83288;SDS011;73193;50.866;5.420;2023-11-19T06:20:29;17.15;;;2.47;;
83288;SDS011;73193;50.866;5.420;2023-11-19T06:23:30;10.27;;;2.17;;
83288;SDS011;73193;50.866;5.420;2023-11-19T06:25:01;10.68;;;2.03;;
83288;SDS011;73193;50.866;5.420;2023-11-19T06:26:37;9.43;;;2.30;;
83288;SDS011;73193;50.866;5.420;2023-11-19T06:28:07;14.50;;;2.53;;
83288;SDS011;73193;50.866;5.420;2023-11-19T06:29:38;11.77;;;2.30;;
83288;SDS011;73193;50.866;5.420;2023-11-19T06:31:10;15.93;;;3.05;;
83288;SDS011;73193;50.866;5.420;2023-11-19T06:32:41;15.25;;;3.03;;
83288;SDS011;73193;50.866;5.420;2023-11-19T06:34:12;11.75;;;2.75;;
83288;SDS011;73193;50.866;5.420;2023-11-19T06:35:43;12.23;;;2.63;;
83288;SDS011;73193;50.866;5.420;2023-11-19T06:37:13;12.38;;;2.63;;
83288;SDS011;73193;50.866;5.420;2023-11-19T06:38:44;10.25;;;2.40;;
83288;SDS011;73193;50.866;5.420;2023-11-19T06:40:15;8.73;;;2.40;;
83288;SDS011;73193;50.866;5.420;2023-11-19T06:43:17;17.35;;;2.58;;
83288;SDS011;73193;50.866;5.420;2023-11-19T06:44:48;10.85;;;2.00;;
83288;SDS011;73193;50.866;5.420;2023-11-19T06:46:19;15.98;;;3.00;;
83288;SDS011;73193;50.866;5.420;2023-11-19T06:47:50;14.80;;;2.97;;
83288;SDS011;73193;50.866;5.420;2023-11-19T06:49:21;14.32;;;2.78;;
83288;SDS011;73193;50.866;5.420;2023-11-19T06:50:51;12.13;;;2.35;;
83288;SDS011;73193;50.866;5.420;2023-11-19T06:52:22;11.43;;;2.28;;
83288;SDS011;73193;50.866;5.420;2023-11-19T06:53:53;14.95;;;2.70;;
83288;SDS011;73193;50.866;5.420;2023-11-19T06:55:24;15.60;;;3.00;;
83288;SDS011;73193;50.866;5.420;2023-11-19T06:56:56;14.85;;;2.75;;
83288;SDS011;73193;50.866;5.420;2023-11-19T06:59:58;16.85;;;3.45;;
83288;SDS011;73193;50.866;5.420;2023-11-19T07:01:30;16.40;;;2.95;;
83288;SDS011;73193;50.866;5.420;2023-11-19T07:03:05;12.98;;;2.45;;
83288;SDS011;73193;50.866;5.420;2023-11-19T07:04:38;17.65;;;2.53;;
83288;SDS011;73193;50.866;5.420;2023-11-19T07:06:10;12.43;;;2.85;;
83288;SDS011;73193;50.866;5.420;2023-11-19T07:07:40;15.55;;;2.95;;
83288;SDS011;73193;50.866;5.420;2023-11-19T07:09:11;12.43;;;2.60;;
83288;SDS011;73193;50.866;5.420;2023-11-19T07:10:43;17.15;;;2.53;;
83288;SDS011;73193;50.866;5.420;2023-11-19T07:12:17;12.90;;;2.65;;
83288;SDS011;73193;50.866;5.420;2023-11-19T07:13:48;13.95;;;2.90;;
83288;SDS011;73193;50.866;5.420;2023-11-19T07:15:18;16.17;;;3.10;;
83288;SDS011;73193;50.866;5.420;2023-11-19T07:16:49;11.48;;;2.55;;
83288;SDS011;73193;50.866;5.420;2023-11-19T07:18:20;12.05;;;2.30;;
83288;SDS011;73193;50.866;5.420;2023-11-19T07:19:52;13.38;;;2.63;;
83288;SDS011;73193;50.866;5.420;2023-11-19T07:21:22;14.90;;;2.65;;
83288;SDS011;73193;50.866;5.420;2023-11-19T07:22:53;8.15;;;2.20;;
83288;SDS011;73193;50.866;5.420;2023-11-19T07:24:25;13.65;;;2.97;;
83288;SDS011;73193;50.866;5.420;2023-11-19T07:25:58;8.40;;;2.78;;
83288;SDS011;73193;50.866;5.420;2023-11-19T07:27:28;17.70;;;3.20;;
83288;SDS011;73193;50.866;5.420;2023-11-19T07:28:59;15.00;;;2.65;;
83288;SDS011;73193;50.866;5.420;2023-11-19T07:30:31;11.85;;;2.33;;
83288;SDS011;73193;50.866;5.420;2023-11-19T07:32:02;15.90;;;2.40;;
83288;SDS011;73193;50.866;5.420;2023-11-19T07:33:33;14.27;;;2.60;;
83288;SDS011;73193;50.866;5.420;2023-11-19T07:35:04;16.88;;;2.78;;
83288;SDS011;73193;50.866;5.420;2023-11-19T07:36:37;15.55;;;2.42;;
83288;SDS011;73193;50.866;5.420;2023-11-19T07:38:08;9.15;;;1.92;;
83288;SDS011;73193;50.866;5.420;2023-11-19T07:39:39;18.05;;;3.05;;
83288;SDS011;73193;50.866;5.420;2023-11-19T07:41:11;14.57;;;2.97;;
83288;SDS011;73193;50.866;5.420;2023-11-19T07:42:42;11.63;;;2.78;;
83288;SDS011;73193;50.866;5.420;2023-11-19T07:44:13;9.35;;;2.08;;
83288;SDS011;73193;50.866;5.420;2023-11-19T07:45:44;11.07;;;2.13;;
83288;SDS011;73193;50.866;5.420;2023-11-19T07:47:15;15.45;;;3.33;;
83288;SDS011;73193;50.866;5.420;2023-11-19T07:48:46;13.45;;;2.50;;
83288;SDS011;73193;50.866;5.420;2023-11-19T07:50:17;20.00;;;3.17;;
83288;SDS011;73193;50.866;5.420;2023-11-19T07:51:50;17.90;;;2.72;;
83288;SDS011;73193;50.866;5.420;2023-11-19T07:53:21;13.85;;;2.60;;
83288;SDS011;73193;50.866;5.420;2023-11-19T07:54:51;16.63;;;2.55;;
83288;SDS011;73193;50.866;5.420;2023-11-19T07:56:22;16.95;;;2.67;;
83288;SDS011;73193;50.866;5.420;2023-11-19T07:57:52;15.95;;;3.00;;
83288;SDS011;73193;50.866;5.420;2023-11-19T07:59:23;12.90;;;2.10;;
83288;SDS011;73193;50.866;5.420;2023-11-19T08:00:54;12.48;;;2.40;;
83288;SDS011;73193;50.866;5.420;2023-11-19T08:02:24;10.43;;;2.25;;
83288;SDS011;73193;50.866;5.420;2023-11-19T08:03:55;13.52;;;2.30;;
83288;SDS011;73193;50.866;5.420;2023-11-19T08:05:26;14.85;;;2.95;;
83288;SDS011;73193;50.866;5.420;2023-11-19T08:06:56;15.95;;;2.40;;
83288;SDS011;73193;50.866;5.420;2023-11-19T08:08:27;16.20;;;2.83;;
83288;SDS011;73193;50.866;5.420;2023-11-19T08:09:59;13.32;;;2.67;;
83288;SDS011;73193;50.866;5.420;2023-11-19T08:11:30;15.55;;;3.17;;
83288;SDS011;73193;50.866;5.420;2023-11-19T08:13:01;14.90;;;2.75;;
83288;SDS011;73193;50.866;5.420;2023-11-19T08:14:31;11.07;;;2.50;;
83288;SDS011;73193;50.866;5.420;2023-11-19T08:16:03;11.95;;;2.47;;
83288;SDS011;73193;50.866;5.420;2023-11-19T08:17:33;14.88;;;2.65;;
83288;SDS011;73193;50.866;5.420;2023-11-19T08:19:04;15.82;;;2.75;;
83288;SDS011;73193;50.866;5.420;2023-11-19T08:20:35;13.13;;;2.55;;
83288;SDS011;73193;50.866;5.420;2023-11-19T08:22:05;14.27;;;3.35;;
83288;SDS011;73193;50.866;5.420;2023-11-19T08:23:36;15.00;;;2.83;;
83288;SDS011;73193;50.866;5.420;2023-11-19T08:25:08;14.50;;;2.55;;
83288;SDS011;73193;50.866;5.420;2023-11-19T08:26:39;18.45;;;2.83;;
83288;SDS011;73193;50.866;5.420;2023-11-19T08:28:09;13.70;;;2.53;;
83288;SDS011;73193;50.866;5.420;2023-11-19T08:29:40;13.65;;;2.53;;
83288;SDS011;73193;50.866;5.420;2023-11-19T08:31:11;13.00;;;2.72;;
83288;SDS011;73193;50.866;5.420;2023-11-19T08:32:41;13.85;;;2.60;;
83288;SDS011;73193;50.866;5.420;2023-11-19T08:34:12;11.75;;;2.85;;
83288;SDS011;73193;50.866;5.420;2023-11-19T08:35:43;14.85;;;2.55;;
83288;SDS011;73193;50.866;5.420;2023-11-19T08:37:13;11.90;;;2.22;;
83288;SDS011;73193;50.866;5.420;2023-11-19T08:38:44;13.60;;;2.90;;
83288;SDS011;73193;50.866;5.420;2023-11-19T08:40:15;12.48;;;2.75;;
83288;SDS011;73193;50.866;5.420;2023-11-19T08:41:45;13.57;;;2.75;;
83288;SDS011;73193;50.866;5.420;2023-11-19T08:43:17;14.40;;;2.55;;
83288;SDS011;73193;50.866;5.420;2023-11-19T08:44:50;18.30;;;2.95;;
83288;SDS011;73193;50.866;5.420;2023-11-19T08:46:24;18.05;;;3.40;;
83288;SDS011;73193;50.866;5.420;2023-11-19T08:47:56;12.93;;;3.13;;
83288;SDS011;73193;50.866;5.420;2023-11-19T08:49:27;17.10;;;2.67;;
83288;SDS011;73193;50.866;5.420;2023-11-19T08:50:58;20.50;;;2.92;;
83288;SDS011;73193;50.866;5.420;2023-11-19T08:52:28;21.10;;;3.50;;
83288;SDS011;73193;50.866;5.420;2023-11-19T08:53:59;12.90;;;2.72;;
83288;SDS011;73193;50.866;5.420;2023-11-19T08:55:30;17.60;;;3.22;;
83288;SDS011;73193;50.866;5.420;2023-11-19T08:57:01;14.57;;;2.47;;
83288;SDS011;73193;50.866;5.420;2023-11-19T09:00:03;14.57;;;2.13;;
83288;SDS011;73193;50.866;5.420;2023-11-19T09:01:37;14.48;;;2.58;;
83288;SDS011;73193;50.866;5.420;2023-11-19T09:03:08;14.40;;;2.70;;
83288;SDS011;73193;50.866;5.420;2023-11-19T09:04:39;10.40;;;2.40;;
83288;SDS011;73193;50.866;5.420;2023-11-19T09:06:11;13.35;;;2.30;;
83288;SDS011;73193;50.866;5.420;2023-11-19T09:07:42;16.77;;;3.65;;
83288;SDS011;73193;50.866;5.420;2023-11-19T09:09:12;12.23;;;2.63;;
83288;SDS011;73193;50.866;5.420;2023-11-19T09:10:44;15.73;;;2.92;;
83288;SDS011;73193;50.866;5.420;2023-11-19T09:12:14;14.00;;;2.60;;
83288;SDS011;73193;50.866;5.420;2023-11-19T09:13:45;11.60;;;2.88;;
83288;SDS011;73193;50.866;5.420;2023-11-19T09:15:15;13.60;;;2.55;;
83288;SDS011;73193;50.866;5.420;2023-11-19T09:16:46;13.38;;;2.25;;
83288;SDS011;73193;50.866;5.420;2023-11-19T09:18:17;13.77;;;2.67;;
83288;SDS011;73193;50.866;5.420;2023-11-19T09:19:48;18.60;;;2.85;;
83288;SDS011;73193;50.866;5.420;2023-11-19T09:21:18;12.93;;;2.80;;
83288;SDS011;73193;50.866;5.420;2023-11-19T09:22:49;15.20;;;3.13;;
83288;SDS011;73193;50.866;5.420;2023-11-19T09:24:21;16.23;;;2.80;;
83288;SDS011;73193;50.866;5.420;2023-11-19T09:25:51;14.73;;;2.78;;
83288;SDS011;73193;50.866;5.420;2023-11-19T09:27:22;14.82;;;2.63;;